sensor_id;sensor_type;location;lat;lon;timestamp;temperature;humidity
44982;DHT22;30716;41.740;-70.400;2022-12-29T00:01:36;25.60;37.40
44982;DHT22;30716;41.740;-70.400;2022-12-29T00:04:04;25.60;37.40
44982;DHT22;30716;41.740;-70.400;2022-12-29T00:06:31;25.60;37.10
44982;DHT22;30716;41.740;-70.400;2022-12-29T00:08:57;25.60;37.40
44982;DHT22;30716;41.740;-70.400;2022-12-29T00:11:26;25.60;37.30
44982;DHT22;30716;41.740;-70.400;2022-12-29T00:13:53;25.60;37.50
44982;DHT22;30716;41.740;-70.400;2022-12-29T00:16:40;25.60;37.40
44982;DHT22;30716;41.740;-70.400;2022-12-29T00:19:07;25.60;37.50
44982;DHT22;30716;41.740;-70.400;2022-12-29T00:21:53;25.60;37.40
44982;DHT22;30716;41.740;-70.400;2022-12-29T00:24:37;25.50;37.60
44982;DHT22;30716;41.740;-70.400;2022-12-29T00:27:19;25.50;37.50
44982;DHT22;30716;41.740;-70.400;2022-12-29T00:30:12;25.50;37.70
44982;DHT22;30716;41.740;-70.400;2022-12-29T00:32:57;25.50;37.80
44982;DHT22;30716;41.740;-70.400;2022-12-29T00:35:50;25.40;37.80
44982;DHT22;30716;41.740;-70.400;2022-12-29T00:38:18;25.40;37.70
44982;DHT22;30716;41.740;-70.400;2022-12-29T00:51:24;25.20;37.80
44982;DHT22;30716;41.740;-70.400;2022-12-29T00:53:54;25.20;38.00
44982;DHT22;30716;41.740;-70.400;2022-12-29T00:56:20;25.20;37.90
44982;DHT22;30716;41.740;-70.400;2022-12-29T00:58:47;25.30;38.00
44982;DHT22;30716;41.740;-70.400;2022-12-29T01:01:13;25.30;38.00
44982;DHT22;30716;41.740;-70.400;2022-12-29T01:03:39;25.40;38.10
44982;DHT22;30716;41.740;-70.400;2022-12-29T01:09:27;25.50;38.00
44982;DHT22;30716;41.740;-70.400;2022-12-29T01:12:12;25.50;38.20
44982;DHT22;30716;41.740;-70.400;2022-12-29T01:14:39;25.50;38.10
44982;DHT22;30716;41.740;-70.400;2022-12-29T01:17:05;25.50;38.10
44982;DHT22;30716;41.740;-70.400;2022-12-29T01:19:32;25.50;38.00
44982;DHT22;30716;41.740;-70.400;2022-12-29T01:21:58;25.50;38.70
44982;DHT22;30716;41.740;-70.400;2022-12-29T01:24:24;25.50;37.90
44982;DHT22;30716;41.740;-70.400;2022-12-29T01:26:51;25.40;37.90
44982;DHT22;30716;41.740;-70.400;2022-12-29T01:29:18;25.40;38.00
44982;DHT22;30716;41.740;-70.400;2022-12-29T01:31:44;25.40;37.90
44982;DHT22;30716;41.740;-70.400;2022-12-29T01:34:10;25.40;37.90
44982;DHT22;30716;41.740;-70.400;2022-12-29T01:36:36;25.30;37.70
44982;DHT22;30716;41.740;-70.400;2022-12-29T01:39:03;25.30;37.70
44982;DHT22;30716;41.740;-70.400;2022-12-29T01:41:29;25.30;38.00
44982;DHT22;30716;41.740;-70.400;2022-12-29T01:43:58;25.30;38.00
44982;DHT22;30716;41.740;-70.400;2022-12-29T19:54:42;24.90;40.00
44982;DHT22;30716;41.740;-70.400;2022-12-29T19:57:08;24.90;39.80
44982;DHT22;30716;41.740;-70.400;2022-12-29T19:59:35;24.90;40.20
44982;DHT22;30716;41.740;-70.400;2022-12-29T20:02:01;24.80;40.00
44982;DHT22;30716;41.740;-70.400;2022-12-29T20:04:27;24.80;40.10
44982;DHT22;30716;41.740;-70.400;2022-12-29T20:06:53;24.80;39.90
44982;DHT22;30716;41.740;-70.400;2022-12-29T20:09:19;24.80;40.20
44982;DHT22;30716;41.740;-70.400;2022-12-29T20:11:46;24.80;40.30
44982;DHT22;30716;41.740;-70.400;2022-12-29T20:14:12;24.80;40.40
44982;DHT22;30716;41.740;-70.400;2022-12-29T20:16:38;24.80;40.30
44982;DHT22;30716;41.740;-70.400;2022-12-29T20:19:05;24.80;40.30
44982;DHT22;30716;41.740;-70.400;2022-12-29T20:21:31;24.80;40.20
44982;DHT22;30716;41.740;-70.400;2022-12-29T20:23:57;24.80;40.30
44982;DHT22;30716;41.740;-70.400;2022-12-29T20:26:26;24.80;40.30
44982;DHT22;30716;41.740;-70.400;2022-12-29T20:28:53;24.80;40.30
44982;DHT22;30716;41.740;-70.400;2022-12-29T20:31:29;24.80;40.30
44982;DHT22;30716;41.740;-70.400;2022-12-29T20:33:55;24.80;40.40
44982;DHT22;30716;41.740;-70.400;2022-12-29T20:36:25;24.70;40.30
44982;DHT22;30716;41.740;-70.400;2022-12-29T20:38:52;24.70;40.10
44982;DHT22;30716;41.740;-70.400;2022-12-29T20:41:19;24.70;40.30
44982;DHT22;30716;41.740;-70.400;2022-12-29T20:43:48;24.70;40.30
44982;DHT22;30716;41.740;-70.400;2022-12-29T20:46:15;24.70;40.20
44982;DHT22;30716;41.740;-70.400;2022-12-29T20:48:41;24.70;40.40
44982;DHT22;30716;41.740;-70.400;2022-12-29T20:51:08;24.70;40.20
44982;DHT22;30716;41.740;-70.400;2022-12-29T20:53:36;24.70;40.30
44982;DHT22;30716;41.740;-70.400;2022-12-29T20:56:05;24.70;40.40
44982;DHT22;30716;41.740;-70.400;2022-12-29T20:58:33;24.70;40.40
44982;DHT22;30716;41.740;-70.400;2022-12-29T21:01:06;24.70;40.20
44982;DHT22;30716;41.740;-70.400;2022-12-29T21:03:32;24.60;39.90
44982;DHT22;30716;41.740;-70.400;2022-12-29T21:05:59;24.60;40.20
44982;DHT22;30716;41.740;-70.400;2022-12-29T21:08:26;24.60;40.20
44982;DHT22;30716;41.740;-70.400;2022-12-29T21:10:55;24.60;40.30
44982;DHT22;30716;41.740;-70.400;2022-12-29T21:13:23;24.60;40.30
44982;DHT22;30716;41.740;-70.400;2022-12-29T21:16:02;24.60;40.50
44982;DHT22;30716;41.740;-70.400;2022-12-29T21:18:29;24.60;40.40
44982;DHT22;30716;41.740;-70.400;2022-12-29T21:23:22;24.60;40.50
44982;DHT22;30716;41.740;-70.400;2022-12-29T21:25:49;24.60;40.50
44982;DHT22;30716;41.740;-70.400;2022-12-29T21:28:15;24.60;40.50
44982;DHT22;30716;41.740;-70.400;2022-12-29T21:30:41;24.60;40.50
44982;DHT22;30716;41.740;-70.400;2022-12-29T21:33:08;24.60;40.60
44982;DHT22;30716;41.740;-70.400;2022-12-29T21:35:35;24.60;40.50
44982;DHT22;30716;41.740;-70.400;2022-12-29T21:38:02;24.60;40.60
44982;DHT22;30716;41.740;-70.400;2022-12-29T21:40:28;24.60;40.50
44982;DHT22;30716;41.740;-70.400;2022-12-29T21:42:54;24.60;40.70
44982;DHT22;30716;41.740;-70.400;2022-12-29T21:45:20;24.60;40.60
44982;DHT22;30716;41.740;-70.400;2022-12-29T21:47:53;24.60;40.60
44982;DHT22;30716;41.740;-70.400;2022-12-29T21:50:40;24.60;41.40
44982;DHT22;30716;41.740;-70.400;2022-12-29T21:53:28;24.60;40.50
44982;DHT22;30716;41.740;-70.400;2022-12-29T21:56:16;24.60;40.60
44982;DHT22;30716;41.740;-70.400;2022-12-29T21:58:47;24.60;40.60
44982;DHT22;30716;41.740;-70.400;2022-12-29T22:01:33;24.60;40.60
44982;DHT22;30716;41.740;-70.400;2022-12-29T22:04:20;24.50;40.40
44982;DHT22;30716;41.740;-70.400;2022-12-29T22:07:06;24.60;40.20
44982;DHT22;30716;41.740;-70.400;2022-12-29T22:09:51;24.50;40.30
44982;DHT22;30716;41.740;-70.400;2022-12-29T22:12:36;24.50;40.50
44982;DHT22;30716;41.740;-70.400;2022-12-29T22:15:21;24.50;40.30
44982;DHT22;30716;41.740;-70.400;2022-12-29T22:17:49;24.60;40.60
44982;DHT22;30716;41.740;-70.400;2022-12-29T22:20:17;24.50;40.60
44982;DHT22;30716;41.740;-70.400;2022-12-29T22:22:43;24.50;40.40
44982;DHT22;30716;41.740;-70.400;2022-12-29T22:25:09;24.50;40.30
44982;DHT22;30716;41.740;-70.400;2022-12-29T22:27:36;24.50;40.50
44982;DHT22;30716;41.740;-70.400;2022-12-29T22:30:03;24.50;41.20
44982;DHT22;30716;41.740;-70.400;2022-12-29T22:32:30;24.50;41.30
44982;DHT22;30716;41.740;-70.400;2022-12-29T22:34:57;24.50;40.40
44982;DHT22;30716;41.740;-70.400;2022-12-29T22:37:23;24.60;40.20
44982;DHT22;30716;41.740;-70.400;2022-12-29T22:39:49;24.50;40.10
44982;DHT22;30716;41.740;-70.400;2022-12-29T22:42:16;24.50;40.40
44982;DHT22;30716;41.740;-70.400;2022-12-29T22:44:42;24.50;39.90
44982;DHT22;30716;41.740;-70.400;2022-12-29T22:47:09;24.50;39.90
44982;DHT22;30716;41.740;-70.400;2022-12-29T22:49:35;24.50;39.30
44982;DHT22;30716;41.740;-70.400;2022-12-29T22:52:02;24.50;39.40
44982;DHT22;30716;41.740;-70.400;2022-12-29T22:54:29;24.50;39.30
44982;DHT22;30716;41.740;-70.400;2022-12-29T22:56:55;24.50;39.30
44982;DHT22;30716;41.740;-70.400;2022-12-29T22:59:21;24.50;39.80
44982;DHT22;30716;41.740;-70.400;2022-12-29T23:01:47;24.40;39.90
44982;DHT22;30716;41.740;-70.400;2022-12-29T23:04:14;24.40;39.30
44982;DHT22;30716;41.740;-70.400;2022-12-29T23:06:40;24.40;39.20
44982;DHT22;30716;41.740;-70.400;2022-12-29T23:09:07;24.40;39.80
44982;DHT22;30716;41.740;-70.400;2022-12-29T23:11:34;24.40;40.10
44982;DHT22;30716;41.740;-70.400;2022-12-29T23:14:00;24.40;40.10
44982;DHT22;30716;41.740;-70.400;2022-12-29T23:16:26;24.40;40.00
44982;DHT22;30716;41.740;-70.400;2022-12-29T23:18:53;24.40;39.90
44982;DHT22;30716;41.740;-70.400;2022-12-29T23:21:20;24.40;40.10
44982;DHT22;30716;41.740;-70.400;2022-12-29T23:23:46;24.40;40.10
44982;DHT22;30716;41.740;-70.400;2022-12-29T23:26:25;24.40;40.50
44982;DHT22;30716;41.740;-70.400;2022-12-29T23:28:53;24.50;40.30
44982;DHT22;30716;41.740;-70.400;2022-12-29T23:31:20;24.40;40.50
44982;DHT22;30716;41.740;-70.400;2022-12-29T23:33:46;24.40;40.40
44982;DHT22;30716;41.740;-70.400;2022-12-29T23:36:13;24.40;40.50
44982;DHT22;30716;41.740;-70.400;2022-12-29T23:38:40;24.40;40.50
44982;DHT22;30716;41.740;-70.400;2022-12-29T23:41:06;24.40;40.60
44982;DHT22;30716;41.740;-70.400;2022-12-29T23:43:33;24.40;40.50
44982;DHT22;30716;41.740;-70.400;2022-12-29T23:46:05;24.40;40.50
44982;DHT22;30716;41.740;-70.400;2022-12-29T23:48:32;24.40;40.40
44982;DHT22;30716;41.740;-70.400;2022-12-29T23:50:58;24.50;40.60
44982;DHT22;30716;41.740;-70.400;2022-12-29T23:53:24;24.50;40.30
44982;DHT22;30716;41.740;-70.400;2022-12-29T23:55:54;24.50;40.40
44982;DHT22;30716;41.740;-70.400;2022-12-29T23:58:21;24.50;40.30
